ICE6653 EHAM-BIKF
Flight info
| Callsign | ICE6653 |
|---|---|
| Flight time | 2h 44m |
| Altitude | 36000 |
| Route | BERGI L602 SUPUR P1 GODOS DCT ROXAT DCT BAZNA DCT ERLOT DCT ROBEM DCT ORSUM DCT BALIX/M075F360 DCT BREKI DCT BASLU BASLU4N |
| Aircraft | B752/M-SDE2E3FGHIJ3J4J7RWXY/LB1 |
Departure
| Time | 2026-05-07 14:47 |
|---|---|
| Airport | Amsterdam Airport Schiphol (EHAM) |
Arrival
| Time | 2026-05-07 17:32 |
|---|---|
| Airport | Keflavik International Airport (BIKF) |
| Time | Latitude | Longitude | Altitude | Speed | Heading |
|---|---|---|---|---|---|
| 2026-05-07 14:11 | 52.31262 | 4.76615 | 8 ft | 0 kts | 124° |
| 2026-05-07 14:32 | 52.31270 | 4.76596 | 8 ft | 2 kts | 123° |
| 2026-05-07 14:32 | 52.31278 | 4.76576 | 8 ft | 2 kts | 123° |
| 2026-05-07 14:32 | 52.31287 | 4.76555 | 8 ft | 2 kts | 123° |
| 2026-05-07 14:33 | 52.31292 | 4.76542 | 8 ft | 2 kts | 124° |
| 2026-05-07 14:33 | 52.31297 | 4.76520 | 8 ft | 2 kts | 93° |
| 2026-05-07 14:33 | 52.31295 | 4.76495 | 8 ft | 2 kts | 69° |
| 2026-05-07 14:33 | 52.31288 | 4.76475 | 8 ft | 2 kts | 45° |
| 2026-05-07 14:34 | 52.31281 | 4.76465 | 8 ft | 1 kts | 30° |
| 2026-05-07 14:34 | 52.31293 | 4.76478 | 8 ft | 5 kts | 32° |
| 2026-05-07 14:34 | 52.31333 | 4.76518 | 7 ft | 5 kts | 33° |
| 2026-05-07 14:34 | 52.31348 | 4.76536 | 6 ft | 0 kts | 35° |
| 2026-05-07 14:39 | 52.31349 | 4.76537 | 6 ft | 0 kts | 35° |
| 2026-05-07 14:40 | 52.31353 | 4.76541 | 6 ft | 3 kts | 33° |
| 2026-05-07 14:41 | 52.31389 | 4.76579 | 3 ft | 8 kts | 33° |
| 2026-05-07 14:41 | 52.31444 | 4.76637 | 2 ft | 9 kts | 33° |
| 2026-05-07 14:41 | 52.31507 | 4.76674 | 0 ft | 9 kts | 359° |
| 2026-05-07 14:41 | 52.31550 | 4.76613 | 0 ft | 8 kts | 279° |
| 2026-05-07 14:42 | 52.31549 | 4.76520 | 0 ft | 7 kts | 268° |
| 2026-05-07 14:42 | 52.31547 | 4.76428 | 0 ft | 8 kts | 267° |
| 2026-05-07 14:42 | 52.31544 | 4.76337 | 0 ft | 7 kts | 268° |
| 2026-05-07 14:42 | 52.31541 | 4.76253 | 0 ft | 7 kts | 267° |
| 2026-05-07 14:43 | 52.31538 | 4.76172 | 0 ft | 7 kts | 268° |
| 2026-05-07 14:43 | 52.31536 | 4.76092 | 0 ft | 6 kts | 265° |
| 2026-05-07 14:43 | 52.31532 | 4.76009 | 0 ft | 8 kts | 267° |
| 2026-05-07 14:43 | 52.31529 | 4.75894 | 0 ft | 12 kts | 268° |
| 2026-05-07 14:44 | 52.31524 | 4.75737 | 2 ft | 14 kts | 265° |
| 2026-05-07 14:44 | 52.31516 | 4.75555 | 3 ft | 17 kts | 266° |
| 2026-05-07 14:44 | 52.31509 | 4.75343 | 1 ft | 18 kts | 267° |
| 2026-05-07 14:44 | 52.31502 | 4.75138 | 0 ft | 18 kts | 267° |
| 2026-05-07 14:45 | 52.31495 | 4.74929 | -2 ft | 18 kts | 268° |
| 2026-05-07 14:45 | 52.31489 | 4.74744 | -3 ft | 12 kts | 267° |
| 2026-05-07 14:45 | 52.31530 | 4.74666 | -5 ft | 8 kts | 348° |
| 2026-05-07 14:45 | 52.31585 | 4.74658 | -5 ft | 7 kts | 359° |
| 2026-05-07 14:46 | 52.31635 | 4.74671 | -5 ft | 7 kts | 15° |
| 2026-05-07 14:46 | 52.31666 | 4.74730 | -5 ft | 9 kts | 81° |
| 2026-05-07 14:46 | 52.31672 | 4.74908 | -5 ft | 26 kts | 88° |
| 2026-05-07 14:46 | 52.31689 | 4.75386 | 1 ft | 69 kts | 87° |
| 2026-05-07 14:47 | 52.31734 | 4.76591 | -3 ft | 140 kts | 86° |
| 2026-05-07 14:47 | 52.31800 | 4.78438 | 249 ft | 179 kts | 86° |
| 2026-05-07 14:47 | 52.31950 | 4.80478 | 1106 ft | 184 kts | 66° |
| 2026-05-07 14:47 | 52.32737 | 4.82113 | 1698 ft | 196 kts | 31° |
| 2026-05-07 14:48 | 52.34083 | 4.82650 | 2246 ft | 212 kts | 353° |
| 2026-05-07 14:48 | 52.35512 | 4.81933 | 3025 ft | 219 kts | 339° |
| 2026-05-07 14:48 | 52.36913 | 4.81058 | 3852 ft | 224 kts | 340° |
| 2026-05-07 14:48 | 52.38393 | 4.79990 | 4450 ft | 243 kts | 326° |
| 2026-05-07 14:49 | 52.39706 | 4.78082 | 5033 ft | 261 kts | 316° |
| 2026-05-07 14:49 | 52.41018 | 4.75996 | 5759 ft | 272 kts | 317° |
| 2026-05-07 14:49 | 52.42393 | 4.73802 | 6443 ft | 282 kts | 316° |
| 2026-05-07 14:49 | 52.43751 | 4.71609 | 7574 ft | 276 kts | 316° |
| 2026-05-07 14:50 | 52.45137 | 4.69363 | 8368 ft | 283 kts | 316° |
| 2026-05-07 14:50 | 52.46653 | 4.67328 | 9227 ft | 285 kts | 333° |
| 2026-05-07 14:50 | 52.48457 | 4.66058 | 10020 ft | 289 kts | 339° |
| 2026-05-07 14:50 | 52.50338 | 4.64801 | 10668 ft | 300 kts | 338° |
| 2026-05-07 14:51 | 52.52309 | 4.63373 | 11035 ft | 320 kts | 330° |
| 2026-05-07 14:51 | 52.54088 | 4.61016 | 11507 ft | 335 kts | 311° |
| 2026-05-07 14:51 | 52.55519 | 4.58035 | 12322 ft | 338 kts | 310° |
| 2026-05-07 14:51 | 52.57085 | 4.55116 | 13084 ft | 342 kts | 313° |
| 2026-05-07 14:52 | 52.58708 | 4.52284 | 13847 ft | 346 kts | 314° |
| 2026-05-07 14:52 | 52.60394 | 4.49451 | 14591 ft | 350 kts | 315° |
| 2026-05-07 14:52 | 52.62109 | 4.46629 | 15321 ft | 354 kts | 315° |
| 2026-05-07 14:52 | 52.63866 | 4.43769 | 16040 ft | 358 kts | 315° |
| 2026-05-07 14:53 | 52.65633 | 4.40911 | 16763 ft | 362 kts | 315° |
| 2026-05-07 14:53 | 52.67448 | 4.37983 | 17480 ft | 365 kts | 315° |
| 2026-05-07 14:53 | 52.69257 | 4.35067 | 18172 ft | 368 kts | 315° |
| 2026-05-07 14:53 | 52.71077 | 4.32135 | 18853 ft | 371 kts | 314° |
| 2026-05-07 14:54 | 52.72881 | 4.29054 | 19504 ft | 375 kts | 312° |
| 2026-05-07 14:54 | 52.74691 | 4.25950 | 20150 ft | 378 kts | 313° |
| 2026-05-07 14:54 | 52.76526 | 4.22897 | 20775 ft | 382 kts | 314° |
| 2026-05-07 14:54 | 52.78408 | 4.19750 | 21399 ft | 385 kts | 314° |
| 2026-05-07 14:55 | 52.80302 | 4.16614 | 21975 ft | 389 kts | 314° |
| 2026-05-07 14:55 | 52.82204 | 4.13491 | 22540 ft | 392 kts | 314° |
| 2026-05-07 14:55 | 52.84161 | 4.10290 | 23101 ft | 396 kts | 314° |
| 2026-05-07 14:55 | 52.86126 | 4.07084 | 23647 ft | 399 kts | 314° |
| 2026-05-07 14:56 | 52.88100 | 4.03864 | 24173 ft | 403 kts | 314° |
| 2026-05-07 14:56 | 52.90088 | 4.00618 | 24688 ft | 406 kts | 314° |
| 2026-05-07 14:56 | 52.92108 | 3.97318 | 25196 ft | 409 kts | 314° |
| 2026-05-07 14:56 | 52.94121 | 3.94025 | 25690 ft | 413 kts | 314° |
| 2026-05-07 14:57 | 52.96184 | 3.90646 | 26190 ft | 416 kts | 315° |
| 2026-05-07 14:57 | 52.98230 | 3.87292 | 26671 ft | 419 kts | 315° |
| 2026-05-07 14:57 | 53.00297 | 3.83899 | 27145 ft | 422 kts | 315° |
| 2026-05-07 14:57 | 53.02385 | 3.80466 | 27617 ft | 425 kts | 315° |
| 2026-05-07 14:58 | 53.04487 | 3.77005 | 28082 ft | 427 kts | 315° |
| 2026-05-07 14:58 | 53.06586 | 3.73545 | 28535 ft | 430 kts | 315° |
| 2026-05-07 14:58 | 53.08717 | 3.70025 | 28983 ft | 433 kts | 315° |
| 2026-05-07 14:58 | 53.10834 | 3.66525 | 29415 ft | 435 kts | 315° |
| 2026-05-07 14:59 | 53.12986 | 3.62961 | 29836 ft | 438 kts | 315° |
| 2026-05-07 14:59 | 53.15156 | 3.59361 | 30277 ft | 441 kts | 315° |
| 2026-05-07 14:59 | 53.17311 | 3.55781 | 30701 ft | 444 kts | 315° |
| 2026-05-07 14:59 | 53.19499 | 3.52141 | 31116 ft | 446 kts | 315° |
| 2026-05-07 15:00 | 53.21682 | 3.48503 | 31497 ft | 448 kts | 315° |
| 2026-05-07 15:00 | 53.23859 | 3.44786 | 31944 ft | 448 kts | 311° |
| 2026-05-07 15:00 | 53.25718 | 3.40697 | 32401 ft | 448 kts | 304° |
| 2026-05-07 15:00 | 53.27430 | 3.36352 | 32856 ft | 447 kts | 304° |
| 2026-05-07 15:01 | 53.29117 | 3.32052 | 33286 ft | 446 kts | 303° |
| 2026-05-07 15:01 | 53.30806 | 3.27706 | 33707 ft | 446 kts | 303° |
| 2026-05-07 15:01 | 53.32491 | 3.23344 | 34119 ft | 445 kts | 303° |
| 2026-05-07 15:01 | 53.34144 | 3.19043 | 34513 ft | 445 kts | 303° |
| 2026-05-07 15:02 | 53.35807 | 3.14705 | 34897 ft | 444 kts | 303° |
| 2026-05-07 15:02 | 53.37467 | 3.10361 | 35272 ft | 443 kts | 303° |
| 2026-05-07 15:02 | 53.39107 | 3.06060 | 35633 ft | 443 kts | 303° |
| 2026-05-07 15:02 | 53.40765 | 3.01741 | 35964 ft | 442 kts | 306° |
| 2026-05-07 15:03 | 53.42641 | 2.97732 | 36124 ft | 440 kts | 311° |
| 2026-05-07 15:03 | 53.44656 | 2.93796 | 36128 ft | 441 kts | 311° |
| 2026-05-07 15:03 | 53.48595 | 2.86058 | 36123 ft | 438 kts | 311° |
| 2026-05-07 15:04 | 53.52538 | 2.78315 | 36114 ft | 438 kts | 311° |
| 2026-05-07 15:04 | 53.56479 | 2.70563 | 36117 ft | 439 kts | 311° |
| 2026-05-07 15:05 | 53.60420 | 2.62788 | 36121 ft | 438 kts | 311° |
| 2026-05-07 15:05 | 53.64372 | 2.54968 | 36124 ft | 439 kts | 311° |
| 2026-05-07 15:06 | 53.68288 | 2.47194 | 36126 ft | 439 kts | 311° |
| 2026-05-07 15:06 | 53.72237 | 2.39331 | 36127 ft | 440 kts | 311° |
| 2026-05-07 15:07 | 53.76180 | 2.31456 | 36126 ft | 440 kts | 310° |
| 2026-05-07 15:07 | 53.80106 | 2.23590 | 36125 ft | 440 kts | 310° |
| 2026-05-07 15:08 | 53.84034 | 2.15693 | 36124 ft | 440 kts | 310° |
| 2026-05-07 15:08 | 53.87958 | 2.07779 | 36123 ft | 440 kts | 310° |
| 2026-05-07 15:09 | 53.91867 | 1.99871 | 36123 ft | 440 kts | 311° |
| 2026-05-07 15:09 | 53.95797 | 1.91894 | 36125 ft | 441 kts | 311° |
| 2026-05-07 15:10 | 53.99697 | 1.83953 | 36125 ft | 441 kts | 311° |
| 2026-05-07 15:10 | 54.03612 | 1.75955 | 36126 ft | 441 kts | 311° |
| 2026-05-07 15:11 | 54.07506 | 1.67975 | 36125 ft | 441 kts | 311° |
| 2026-05-07 15:11 | 54.11410 | 1.59949 | 36125 ft | 441 kts | 311° |
| 2026-05-07 15:12 | 54.15301 | 1.51925 | 36124 ft | 440 kts | 310° |
| 2026-05-07 15:12 | 54.19207 | 1.43946 | 36123 ft | 439 kts | 314° |
| 2026-05-07 15:13 | 54.23455 | 1.36457 | 36120 ft | 442 kts | 315° |
| 2026-05-07 15:13 | 54.27722 | 1.28882 | 36115 ft | 446 kts | 314° |
| 2026-05-07 15:14 | 54.32005 | 1.21242 | 36113 ft | 445 kts | 314° |
| 2026-05-07 15:14 | 54.36259 | 1.13624 | 36111 ft | 445 kts | 314° |
| 2026-05-07 15:15 | 54.40533 | 1.05942 | 36092 ft | 446 kts | 313° |
| 2026-05-07 15:15 | 54.44790 | 0.98268 | 36069 ft | 445 kts | 313° |
| 2026-05-07 15:16 | 54.49033 | 0.90593 | 36065 ft | 445 kts | 313° |
| 2026-05-07 15:16 | 54.53286 | 0.82878 | 36064 ft | 445 kts | 313° |
| 2026-05-07 15:17 | 54.57544 | 0.75126 | 36064 ft | 446 kts | 313° |
| 2026-05-07 15:17 | 54.61773 | 0.67402 | 36063 ft | 446 kts | 313° |
| 2026-05-07 15:18 | 54.66005 | 0.59648 | 36060 ft | 446 kts | 313° |
| 2026-05-07 15:18 | 54.70251 | 0.51843 | 36057 ft | 446 kts | 313° |
| 2026-05-07 15:19 | 54.74458 | 0.44085 | 36056 ft | 446 kts | 313° |
| 2026-05-07 15:19 | 54.78699 | 0.36236 | 36055 ft | 447 kts | 313° |
| 2026-05-07 15:20 | 54.82909 | 0.28423 | 36053 ft | 447 kts | 312° |
| 2026-05-07 15:20 | 54.87144 | 0.20533 | 36052 ft | 446 kts | 312° |
| 2026-05-07 15:21 | 54.91333 | 0.12705 | 36051 ft | 446 kts | 312° |
| 2026-05-07 15:21 | 54.95540 | 0.04819 | 36050 ft | 445 kts | 312° |
| 2026-05-07 15:22 | 54.99748 | -0.03007 | 36049 ft | 445 kts | 314° |
| 2026-05-07 15:22 | 55.04043 | -0.10693 | 36053 ft | 445 kts | 313° |
| 2026-05-07 15:23 | 55.08259 | -0.18538 | 36056 ft | 445 kts | 311° |
| 2026-05-07 15:23 | 55.12460 | -0.26473 | 36041 ft | 446 kts | 311° |
| 2026-05-07 15:24 | 55.16620 | -0.34391 | 36035 ft | 445 kts | 311° |
| 2026-05-07 15:24 | 55.20785 | -0.42353 | 36036 ft | 446 kts | 311° |
| 2026-05-07 15:25 | 55.24954 | -0.50352 | 36041 ft | 445 kts | 311° |
| 2026-05-07 15:25 | 55.28966 | -0.58520 | 36052 ft | 443 kts | 304° |
| 2026-05-07 15:26 | 55.32530 | -0.67360 | 36046 ft | 444 kts | 302° |
| 2026-05-07 15:26 | 55.36051 | -0.76194 | 36043 ft | 443 kts | 302° |
| 2026-05-07 15:27 | 55.39543 | -0.85022 | 36035 ft | 443 kts | 302° |
| 2026-05-07 15:27 | 55.43024 | -0.93867 | 36024 ft | 442 kts | 302° |
| 2026-05-07 15:28 | 55.46527 | -1.02751 | 36022 ft | 442 kts | 303° |
| 2026-05-07 15:28 | 55.50084 | -1.11519 | 36021 ft | 442 kts | 303° |
| 2026-05-07 15:29 | 55.53633 | -1.20307 | 36021 ft | 442 kts | 303° |
| 2026-05-07 15:29 | 55.57194 | -1.29158 | 36020 ft | 441 kts | 303° |
| 2026-05-07 15:30 | 55.60728 | -1.37972 | 36019 ft | 441 kts | 303° |
| 2026-05-07 15:30 | 55.64252 | -1.46796 | 36017 ft | 440 kts | 303° |
| 2026-05-07 15:31 | 55.67749 | -1.55581 | 36016 ft | 440 kts | 303° |
| 2026-05-07 15:31 | 55.71250 | -1.64407 | 36015 ft | 440 kts | 303° |
| 2026-05-07 15:32 | 55.74758 | -1.73285 | 36014 ft | 439 kts | 302° |
| 2026-05-07 15:32 | 55.78251 | -1.82155 | 36011 ft | 439 kts | 302° |
| 2026-05-07 15:33 | 55.81723 | -1.91007 | 36003 ft | 439 kts | 302° |
| 2026-05-07 15:33 | 55.85204 | -1.99912 | 35995 ft | 438 kts | 302° |
| 2026-05-07 15:34 | 55.88652 | -2.08764 | 35990 ft | 438 kts | 302° |
| 2026-05-07 15:34 | 55.92097 | -2.17641 | 35986 ft | 438 kts | 302° |
| 2026-05-07 15:35 | 55.95549 | -2.26569 | 35981 ft | 438 kts | 302° |
| 2026-05-07 15:35 | 55.98988 | -2.35496 | 35974 ft | 438 kts | 302° |
| 2026-05-07 15:36 | 56.02413 | -2.44419 | 35970 ft | 439 kts | 302° |
| 2026-05-07 15:36 | 56.05865 | -2.53444 | 35966 ft | 439 kts | 301° |
| 2026-05-07 15:37 | 56.09282 | -2.62411 | 35957 ft | 438 kts | 301° |
| 2026-05-07 15:37 | 56.12678 | -2.71356 | 35944 ft | 436 kts | 300° |
| 2026-05-07 15:38 | 56.16082 | -2.80355 | 35942 ft | 436 kts | 300° |
| 2026-05-07 15:38 | 56.19456 | -2.89310 | 35939 ft | 436 kts | 300° |
| 2026-05-07 15:39 | 56.22841 | -2.98325 | 35938 ft | 436 kts | 300° |
| 2026-05-07 15:39 | 56.26202 | -3.07310 | 35937 ft | 436 kts | 300° |
| 2026-05-07 15:40 | 56.29552 | -3.16298 | 35937 ft | 436 kts | 300° |
| 2026-05-07 15:40 | 56.32917 | -3.25358 | 35937 ft | 436 kts | 300° |
| 2026-05-07 15:41 | 56.36271 | -3.34428 | 35937 ft | 436 kts | 300° |
| 2026-05-07 15:41 | 56.39611 | -3.43489 | 35938 ft | 436 kts | 300° |
| 2026-05-07 15:42 | 56.42949 | -3.52580 | 35938 ft | 437 kts | 299° |
| 2026-05-07 15:42 | 56.46279 | -3.61685 | 35938 ft | 437 kts | 299° |
| 2026-05-07 15:43 | 56.49605 | -3.70812 | 35936 ft | 437 kts | 298° |
| 2026-05-07 15:43 | 56.52937 | -3.79987 | 35936 ft | 437 kts | 298° |
| 2026-05-07 15:44 | 56.56247 | -3.89139 | 35924 ft | 437 kts | 298° |
| 2026-05-07 15:44 | 56.59560 | -3.98336 | 35928 ft | 437 kts | 298° |
| 2026-05-07 15:45 | 56.62877 | -4.07573 | 35923 ft | 437 kts | 298° |
| 2026-05-07 15:45 | 56.66154 | -4.16740 | 35917 ft | 437 kts | 298° |
| 2026-05-07 15:46 | 56.71100 | -4.30635 | 35913 ft | 437 kts | 298° |
| 2026-05-07 15:47 | 56.74378 | -4.39889 | 35911 ft | 437 kts | 298° |
| 2026-05-07 15:47 | 56.77642 | -4.49141 | 35903 ft | 436 kts | 297° |
| 2026-05-07 15:48 | 56.80893 | -4.58392 | 35888 ft | 436 kts | 297° |
| 2026-05-07 15:48 | 56.84152 | -4.67699 | 35866 ft | 435 kts | 296° |
| 2026-05-07 15:49 | 56.87381 | -4.76956 | 35888 ft | 434 kts | 296° |
| 2026-05-07 15:49 | 56.90617 | -4.86270 | 35877 ft | 435 kts | 296° |
| 2026-05-07 15:50 | 56.93825 | -4.95540 | 35852 ft | 434 kts | 296° |
| 2026-05-07 15:50 | 56.97035 | -5.04853 | 35845 ft | 434 kts | 296° |
| 2026-05-07 15:51 | 57.00250 | -5.14215 | 35889 ft | 434 kts | 296° |
| 2026-05-07 15:51 | 57.03435 | -5.23527 | 35888 ft | 434 kts | 296° |
| 2026-05-07 15:52 | 57.06907 | -5.32625 | 35895 ft | 441 kts | 305° |
| 2026-05-07 15:52 | 57.10892 | -5.41171 | 35876 ft | 441 kts | 304° |
| 2026-05-07 15:53 | 57.14813 | -5.49763 | 35864 ft | 440 kts | 303° |
| 2026-05-07 15:53 | 57.18710 | -5.58373 | 35855 ft | 440 kts | 303° |
| 2026-05-07 15:54 | 57.22600 | -5.67013 | 35850 ft | 439 kts | 302° |
| 2026-05-07 15:54 | 57.26479 | -5.75666 | 35849 ft | 438 kts | 302° |
| 2026-05-07 15:55 | 57.30343 | -5.84319 | 35846 ft | 438 kts | 302° |
| 2026-05-07 15:55 | 57.34189 | -5.92961 | 35843 ft | 437 kts | 302° |
| 2026-05-07 15:56 | 57.38028 | -6.01620 | 35841 ft | 437 kts | 302° |
| 2026-05-07 15:56 | 57.41867 | -6.10309 | 35837 ft | 436 kts | 301° |
| 2026-05-07 15:57 | 57.45683 | -6.18981 | 35832 ft | 436 kts | 301° |
| 2026-05-07 15:57 | 57.49493 | -6.27671 | 35828 ft | 436 kts | 301° |
| 2026-05-07 15:58 | 57.53292 | -6.36369 | 35821 ft | 436 kts | 301° |
| 2026-05-07 15:58 | 57.57093 | -6.45102 | 35805 ft | 436 kts | 301° |
| 2026-05-07 15:59 | 57.60884 | -6.53841 | 35792 ft | 436 kts | 301° |
| 2026-05-07 15:59 | 57.64691 | -6.62652 | 35787 ft | 436 kts | 301° |
| 2026-05-07 16:00 | 57.68459 | -6.71404 | 35787 ft | 435 kts | 300° |
| 2026-05-07 16:00 | 57.72229 | -6.80193 | 35787 ft | 436 kts | 300° |
| 2026-05-07 16:01 | 57.76010 | -6.89043 | 35785 ft | 437 kts | 300° |
| 2026-05-07 16:01 | 57.79782 | -6.97903 | 35783 ft | 437 kts | 300° |
| 2026-05-07 16:02 | 57.83547 | -7.06778 | 35780 ft | 438 kts | 300° |
| 2026-05-07 16:02 | 57.87317 | -7.15701 | 35780 ft | 438 kts | 300° |
| 2026-05-07 16:03 | 57.91085 | -7.24650 | 35781 ft | 439 kts | 300° |
| 2026-05-07 16:03 | 57.94870 | -7.33675 | 35782 ft | 440 kts | 300° |
| 2026-05-07 16:04 | 57.98627 | -7.42667 | 35782 ft | 440 kts | 300° |
| 2026-05-07 16:04 | 58.02394 | -7.51717 | 35783 ft | 440 kts | 300° |
| 2026-05-07 16:05 | 58.06159 | -7.60796 | 35780 ft | 440 kts | 300° |
| 2026-05-07 16:05 | 58.09888 | -7.69822 | 35783 ft | 438 kts | 299° |
| 2026-05-07 16:06 | 58.13627 | -7.78907 | 35777 ft | 438 kts | 299° |
| 2026-05-07 16:06 | 58.17346 | -7.87983 | 35778 ft | 439 kts | 299° |
| 2026-05-07 16:07 | 58.21049 | -7.97050 | 35779 ft | 438 kts | 299° |
| 2026-05-07 16:07 | 58.24763 | -8.06181 | 35780 ft | 439 kts | 299° |
| 2026-05-07 16:08 | 58.28491 | -8.15381 | 35778 ft | 440 kts | 299° |
| 2026-05-07 16:08 | 58.32184 | -8.24530 | 35781 ft | 439 kts | 299° |
| 2026-05-07 16:09 | 58.35879 | -8.33718 | 35780 ft | 439 kts | 299° |
| 2026-05-07 16:09 | 58.39567 | -8.42926 | 35781 ft | 439 kts | 299° |
| 2026-05-07 16:10 | 58.43263 | -8.52191 | 35778 ft | 439 kts | 299° |
| 2026-05-07 16:10 | 58.46928 | -8.61414 | 35777 ft | 439 kts | 300° |
| 2026-05-07 16:11 | 58.50589 | -8.70658 | 35779 ft | 438 kts | 299° |
| 2026-05-07 16:11 | 58.54251 | -8.79944 | 35780 ft | 437 kts | 298° |
| 2026-05-07 16:12 | 58.57888 | -8.89204 | 35780 ft | 438 kts | 299° |
| 2026-05-07 16:12 | 58.61521 | -8.98490 | 35780 ft | 438 kts | 299° |
| 2026-05-07 16:13 | 58.65139 | -9.07771 | 35781 ft | 438 kts | 299° |
| 2026-05-07 16:13 | 58.68780 | -9.17150 | 35782 ft | 437 kts | 299° |
| 2026-05-07 16:14 | 58.72394 | -9.26496 | 35784 ft | 437 kts | 299° |
| 2026-05-07 16:14 | 58.75986 | -9.35822 | 35785 ft | 438 kts | 299° |
| 2026-05-07 16:15 | 58.79604 | -9.45256 | 35787 ft | 438 kts | 299° |
| 2026-05-07 16:15 | 58.83203 | -9.54673 | 35788 ft | 438 kts | 299° |
| 2026-05-07 16:16 | 58.86789 | -9.64095 | 35788 ft | 438 kts | 299° |
| 2026-05-07 16:16 | 58.90380 | -9.73566 | 35789 ft | 436 kts | 298° |
| 2026-05-07 16:17 | 58.93928 | -9.82965 | 35788 ft | 437 kts | 298° |
| 2026-05-07 16:17 | 58.97514 | -9.92502 | 35788 ft | 437 kts | 298° |
| 2026-05-07 16:18 | 59.01186 | -10.01805 | 35792 ft | 442 kts | 304° |
| 2026-05-07 16:18 | 59.05277 | -10.10778 | 35789 ft | 444 kts | 304° |
| 2026-05-07 16:19 | 59.09301 | -10.19712 | 35761 ft | 443 kts | 304° |
| 2026-05-07 16:19 | 59.13356 | -10.28766 | 35751 ft | 443 kts | 305° |
| 2026-05-07 16:20 | 59.17388 | -10.37808 | 35777 ft | 445 kts | 305° |
| 2026-05-07 16:20 | 59.21420 | -10.46886 | 35779 ft | 444 kts | 305° |
| 2026-05-07 16:21 | 59.25440 | -10.55977 | 35783 ft | 444 kts | 305° |
| 2026-05-07 16:21 | 59.29453 | -10.65082 | 35784 ft | 444 kts | 304° |
| 2026-05-07 16:22 | 59.33446 | -10.74179 | 35790 ft | 443 kts | 304° |
| 2026-05-07 16:22 | 59.37451 | -10.83344 | 35794 ft | 443 kts | 305° |
| 2026-05-07 16:23 | 59.41427 | -10.92473 | 35795 ft | 443 kts | 305° |
| 2026-05-07 16:23 | 59.45425 | -11.01691 | 35796 ft | 443 kts | 305° |
| 2026-05-07 16:24 | 59.49382 | -11.10855 | 35796 ft | 443 kts | 305° |
| 2026-05-07 16:24 | 59.53363 | -11.20108 | 35797 ft | 443 kts | 305° |
| 2026-05-07 16:25 | 59.57312 | -11.29322 | 35796 ft | 443 kts | 305° |
| 2026-05-07 16:25 | 59.61280 | -11.38619 | 35798 ft | 444 kts | 305° |
| 2026-05-07 16:26 | 59.65218 | -11.47885 | 35798 ft | 444 kts | 306° |
| 2026-05-07 16:26 | 59.69179 | -11.57239 | 35799 ft | 444 kts | 306° |
| 2026-05-07 16:27 | 59.73113 | -11.66569 | 35803 ft | 444 kts | 305° |
| 2026-05-07 16:27 | 59.77058 | -11.75962 | 35806 ft | 444 kts | 305° |
| 2026-05-07 16:28 | 59.80971 | -11.85319 | 35811 ft | 445 kts | 305° |
| 2026-05-07 16:28 | 59.84917 | -11.94788 | 35813 ft | 445 kts | 305° |
| 2026-05-07 16:29 | 59.88828 | -12.04214 | 35819 ft | 445 kts | 305° |
| 2026-05-07 16:29 | 59.92755 | -12.13720 | 35821 ft | 445 kts | 306° |
| 2026-05-07 16:30 | 59.96678 | -12.23252 | 35828 ft | 446 kts | 306° |
| 2026-05-07 16:30 | 60.00586 | -12.32787 | 35832 ft | 446 kts | 306° |
| 2026-05-07 16:31 | 60.04471 | -12.42306 | 35835 ft | 446 kts | 306° |
| 2026-05-07 16:31 | 60.08375 | -12.51913 | 35834 ft | 446 kts | 306° |
| 2026-05-07 16:32 | 60.12252 | -12.61492 | 35828 ft | 445 kts | 306° |
| 2026-05-07 16:32 | 60.16137 | -12.71128 | 35833 ft | 445 kts | 305° |
| 2026-05-07 16:33 | 60.20009 | -12.80776 | 35835 ft | 445 kts | 305° |
| 2026-05-07 16:33 | 60.23860 | -12.90410 | 35838 ft | 446 kts | 305° |
| 2026-05-07 16:34 | 60.27734 | -13.00141 | 35840 ft | 445 kts | 306° |
| 2026-05-07 16:34 | 60.31587 | -13.09860 | 35843 ft | 445 kts | 306° |
| 2026-05-07 16:35 | 60.35420 | -13.19571 | 35846 ft | 445 kts | 306° |
| 2026-05-07 16:35 | 60.39259 | -13.29335 | 35849 ft | 445 kts | 306° |
| 2026-05-07 16:36 | 60.43075 | -13.39086 | 35853 ft | 445 kts | 306° |
| 2026-05-07 16:36 | 60.46902 | -13.48903 | 35856 ft | 445 kts | 306° |
| 2026-05-07 16:37 | 60.50709 | -13.58712 | 35860 ft | 445 kts | 306° |
| 2026-05-07 16:37 | 60.54491 | -13.68497 | 35865 ft | 444 kts | 305° |
| 2026-05-07 16:38 | 60.58272 | -13.78320 | 35869 ft | 444 kts | 305° |
| 2026-05-07 16:38 | 60.62085 | -13.88270 | 35873 ft | 444 kts | 305° |
| 2026-05-07 16:39 | 60.65836 | -13.98100 | 35877 ft | 444 kts | 305° |
| 2026-05-07 16:39 | 60.69606 | -14.08023 | 35881 ft | 444 kts | 305° |
| 2026-05-07 16:40 | 60.73372 | -14.17976 | 35884 ft | 444 kts | 306° |
| 2026-05-07 16:40 | 60.77133 | -14.27961 | 35887 ft | 444 kts | 306° |
| 2026-05-07 16:41 | 60.80849 | -14.37867 | 35893 ft | 444 kts | 306° |
| 2026-05-07 16:41 | 60.84604 | -14.47921 | 35897 ft | 444 kts | 306° |
| 2026-05-07 16:42 | 60.88328 | -14.57934 | 35932 ft | 443 kts | 306° |
| 2026-05-07 16:42 | 60.92049 | -14.67986 | 36015 ft | 444 kts | 305° |
| 2026-05-07 16:43 | 60.95744 | -14.78009 | 36066 ft | 445 kts | 305° |
| 2026-05-07 16:43 | 60.99454 | -14.88115 | 36069 ft | 444 kts | 306° |
| 2026-05-07 16:44 | 61.03154 | -14.98239 | 36072 ft | 444 kts | 306° |
| 2026-05-07 16:44 | 61.06849 | -15.08395 | 36074 ft | 444 kts | 306° |
| 2026-05-07 16:45 | 61.10530 | -15.18556 | 36076 ft | 444 kts | 306° |
| 2026-05-07 16:45 | 61.14196 | -15.28719 | 36078 ft | 443 kts | 306° |
| 2026-05-07 16:46 | 61.17859 | -15.38920 | 36083 ft | 443 kts | 306° |
| 2026-05-07 16:46 | 61.21516 | -15.49151 | 36092 ft | 443 kts | 306° |
| 2026-05-07 16:47 | 61.25172 | -15.59425 | 36099 ft | 443 kts | 306° |
| 2026-05-07 16:47 | 61.28794 | -15.69645 | 36102 ft | 443 kts | 305° |
| 2026-05-07 16:48 | 61.32434 | -15.79964 | 36105 ft | 443 kts | 305° |
| 2026-05-07 16:48 | 61.36039 | -15.90228 | 36107 ft | 443 kts | 305° |
| 2026-05-07 16:49 | 61.39655 | -16.00571 | 36102 ft | 443 kts | 305° |
| 2026-05-07 16:49 | 61.43249 | -16.10896 | 36088 ft | 443 kts | 305° |
| 2026-05-07 16:50 | 61.46857 | -16.21308 | 36080 ft | 442 kts | 305° |
| 2026-05-07 16:50 | 61.50425 | -16.31654 | 36081 ft | 442 kts | 305° |
| 2026-05-07 16:51 | 61.54009 | -16.42091 | 36081 ft | 442 kts | 305° |
| 2026-05-07 16:51 | 61.57595 | -16.52581 | 36082 ft | 443 kts | 306° |
| 2026-05-07 16:52 | 61.61151 | -16.63028 | 36083 ft | 442 kts | 306° |
| 2026-05-07 16:52 | 61.64699 | -16.73503 | 36085 ft | 442 kts | 304° |
| 2026-05-07 16:53 | 61.68250 | -16.84032 | 36085 ft | 441 kts | 304° |
| 2026-05-07 16:53 | 61.71766 | -16.94505 | 36086 ft | 441 kts | 304° |
| 2026-05-07 16:54 | 61.75277 | -17.05013 | 36087 ft | 441 kts | 304° |
| 2026-05-07 16:54 | 61.78807 | -17.15627 | 36088 ft | 441 kts | 304° |
| 2026-05-07 16:55 | 61.82308 | -17.26200 | 36089 ft | 441 kts | 304° |
| 2026-05-07 16:55 | 61.85804 | -17.36810 | 36090 ft | 441 kts | 304° |
| 2026-05-07 16:56 | 61.89267 | -17.47366 | 36091 ft | 441 kts | 305° |
| 2026-05-07 16:56 | 61.94467 | -17.63306 | 36093 ft | 440 kts | 305° |
| 2026-05-07 16:57 | 61.97926 | -17.73971 | 36107 ft | 440 kts | 304° |
| 2026-05-07 16:57 | 62.01395 | -17.84721 | 36109 ft | 441 kts | 304° |
| 2026-05-07 16:58 | 62.04832 | -17.95417 | 36111 ft | 440 kts | 304° |
| 2026-05-07 16:58 | 62.08264 | -18.06152 | 36113 ft | 440 kts | 304° |
| 2026-05-07 16:59 | 62.11698 | -18.16941 | 36114 ft | 441 kts | 304° |
| 2026-05-07 16:59 | 62.15101 | -18.27685 | 36114 ft | 440 kts | 304° |
| 2026-05-07 17:00 | 62.18510 | -18.38497 | 36122 ft | 440 kts | 304° |
| 2026-05-07 17:00 | 62.21924 | -18.49375 | 36130 ft | 440 kts | 304° |
| 2026-05-07 17:01 | 62.25314 | -18.60232 | 36131 ft | 440 kts | 304° |
| 2026-05-07 17:01 | 62.28691 | -18.71093 | 36133 ft | 439 kts | 303° |
| 2026-05-07 17:02 | 62.32062 | -18.81990 | 36133 ft | 439 kts | 303° |
| 2026-05-07 17:02 | 62.35420 | -18.92899 | 36134 ft | 439 kts | 303° |
| 2026-05-07 17:03 | 62.38771 | -19.03832 | 36134 ft | 439 kts | 303° |
| 2026-05-07 17:03 | 62.42111 | -19.14786 | 36135 ft | 439 kts | 304° |
| 2026-05-07 17:04 | 62.45415 | -19.25673 | 36129 ft | 428 kts | 304° |
| 2026-05-07 17:04 | 62.47017 | -19.30975 | 36128 ft | 417 kts | 304° |
| 2026-05-07 17:04 | 62.48592 | -19.36193 | 36132 ft | 413 kts | 304° |
| 2026-05-07 17:05 | 62.50156 | -19.41389 | 35991 ft | 422 kts | 304° |
| 2026-05-07 17:05 | 62.51767 | -19.46750 | 35567 ft | 430 kts | 304° |
| 2026-05-07 17:05 | 62.53390 | -19.52167 | 35107 ft | 426 kts | 304° |
| 2026-05-07 17:05 | 62.55116 | -19.57198 | 34732 ft | 418 kts | 312° |
| 2026-05-07 17:06 | 62.56999 | -19.61869 | 34293 ft | 415 kts | 312° |
| 2026-05-07 17:06 | 62.58876 | -19.66618 | 33843 ft | 415 kts | 311° |
| 2026-05-07 17:06 | 62.60744 | -19.71381 | 33417 ft | 417 kts | 311° |
| 2026-05-07 17:06 | 62.62607 | -19.76158 | 32997 ft | 418 kts | 311° |
| 2026-05-07 17:07 | 62.64467 | -19.80945 | 32574 ft | 418 kts | 311° |
| 2026-05-07 17:07 | 62.66320 | -19.85733 | 32139 ft | 417 kts | 311° |
| 2026-05-07 17:07 | 62.68185 | -19.90564 | 31691 ft | 416 kts | 311° |
| 2026-05-07 17:07 | 62.70009 | -19.95302 | 31241 ft | 414 kts | 311° |
| 2026-05-07 17:08 | 62.71845 | -20.00081 | 30774 ft | 411 kts | 311° |
| 2026-05-07 17:08 | 62.73661 | -20.04820 | 30330 ft | 405 kts | 311° |
| 2026-05-07 17:08 | 62.75440 | -20.09471 | 29901 ft | 399 kts | 311° |
| 2026-05-07 17:08 | 62.77198 | -20.14078 | 29410 ft | 394 kts | 311° |
| 2026-05-07 17:09 | 62.78934 | -20.18637 | 28874 ft | 389 kts | 311° |
| 2026-05-07 17:09 | 62.80647 | -20.23144 | 28339 ft | 385 kts | 311° |
| 2026-05-07 17:09 | 62.82333 | -20.27588 | 27808 ft | 381 kts | 311° |
| 2026-05-07 17:09 | 62.84000 | -20.31992 | 27253 ft | 376 kts | 311° |
| 2026-05-07 17:10 | 62.85648 | -20.36352 | 26681 ft | 372 kts | 311° |
| 2026-05-07 17:10 | 62.87281 | -20.40682 | 26099 ft | 368 kts | 311° |
| 2026-05-07 17:10 | 62.88882 | -20.44936 | 25525 ft | 364 kts | 311° |
| 2026-05-07 17:10 | 62.90484 | -20.49199 | 24948 ft | 360 kts | 311° |
| 2026-05-07 17:11 | 62.92051 | -20.53377 | 24382 ft | 357 kts | 311° |
| 2026-05-07 17:11 | 62.93617 | -20.57560 | 23817 ft | 353 kts | 311° |
| 2026-05-07 17:11 | 62.95150 | -20.61663 | 23275 ft | 349 kts | 311° |
| 2026-05-07 17:11 | 62.96677 | -20.65758 | 22741 ft | 346 kts | 311° |
| 2026-05-07 17:12 | 62.98177 | -20.69787 | 22228 ft | 344 kts | 311° |
| 2026-05-07 17:12 | 62.99686 | -20.73849 | 21727 ft | 342 kts | 311° |
| 2026-05-07 17:12 | 63.01172 | -20.77854 | 21246 ft | 340 kts | 311° |
| 2026-05-07 17:12 | 63.02651 | -20.81849 | 20784 ft | 338 kts | 311° |
| 2026-05-07 17:13 | 63.04132 | -20.85856 | 20334 ft | 335 kts | 311° |
| 2026-05-07 17:13 | 63.05583 | -20.89788 | 19900 ft | 333 kts | 311° |
| 2026-05-07 17:13 | 63.07033 | -20.93724 | 19474 ft | 331 kts | 311° |
| 2026-05-07 17:13 | 63.08470 | -20.97636 | 19059 ft | 329 kts | 311° |
| 2026-05-07 17:14 | 63.09897 | -21.01522 | 18652 ft | 327 kts | 311° |
| 2026-05-07 17:14 | 63.11335 | -21.05444 | 18252 ft | 325 kts | 311° |
| 2026-05-07 17:14 | 63.12733 | -21.09267 | 17862 ft | 324 kts | 311° |
| 2026-05-07 17:14 | 63.14151 | -21.13149 | 17464 ft | 322 kts | 311° |
| 2026-05-07 17:15 | 63.15542 | -21.16967 | 17071 ft | 320 kts | 311° |
| 2026-05-07 17:15 | 63.16919 | -21.20748 | 16683 ft | 318 kts | 311° |
| 2026-05-07 17:15 | 63.18301 | -21.24561 | 16276 ft | 317 kts | 311° |
| 2026-05-07 17:15 | 63.19805 | -21.28091 | 15812 ft | 314 kts | 319° |
| 2026-05-07 17:16 | 63.21392 | -21.31315 | 15421 ft | 309 kts | 320° |
| 2026-05-07 17:16 | 63.22992 | -21.34471 | 15037 ft | 309 kts | 321° |
| 2026-05-07 17:16 | 63.24600 | -21.37569 | 14657 ft | 308 kts | 321° |
| 2026-05-07 17:16 | 63.26214 | -21.40651 | 14276 ft | 306 kts | 322° |
| 2026-05-07 17:17 | 63.27830 | -21.43718 | 13897 ft | 304 kts | 322° |
| 2026-05-07 17:17 | 63.29415 | -21.46716 | 13525 ft | 303 kts | 322° |
| 2026-05-07 17:17 | 63.31028 | -21.49763 | 13147 ft | 301 kts | 322° |
| 2026-05-07 17:17 | 63.32606 | -21.52746 | 12777 ft | 300 kts | 322° |
| 2026-05-07 17:18 | 63.34196 | -21.55743 | 12407 ft | 298 kts | 322° |
| 2026-05-07 17:18 | 63.35757 | -21.58697 | 12040 ft | 297 kts | 322° |
| 2026-05-07 17:18 | 63.37319 | -21.61664 | 11683 ft | 295 kts | 322° |
| 2026-05-07 17:18 | 63.38876 | -21.64609 | 11320 ft | 294 kts | 322° |
| 2026-05-07 17:19 | 63.40424 | -21.67553 | 10967 ft | 293 kts | 321° |
| 2026-05-07 17:19 | 63.41968 | -21.70491 | 10625 ft | 293 kts | 321° |
| 2026-05-07 17:19 | 63.43491 | -21.73397 | 10518 ft | 280 kts | 322° |
| 2026-05-07 17:19 | 63.44921 | -21.76126 | 10430 ft | 267 kts | 322° |
| 2026-05-07 17:20 | 63.46304 | -21.78768 | 10178 ft | 261 kts | 322° |
| 2026-05-07 17:20 | 63.47652 | -21.81344 | 9928 ft | 253 kts | 322° |
| 2026-05-07 17:20 | 63.49007 | -21.83938 | 9706 ft | 259 kts | 322° |
| 2026-05-07 17:20 | 63.50380 | -21.86566 | 9476 ft | 262 kts | 322° |
| 2026-05-07 17:21 | 63.51749 | -21.89197 | 9240 ft | 260 kts | 322° |
| 2026-05-07 17:21 | 63.53122 | -21.91836 | 9010 ft | 259 kts | 322° |
| 2026-05-07 17:21 | 63.54476 | -21.94445 | 8788 ft | 259 kts | 322° |
| 2026-05-07 17:21 | 63.55846 | -21.97085 | 8470 ft | 262 kts | 322° |
| 2026-05-07 17:22 | 63.57216 | -21.99730 | 8143 ft | 258 kts | 322° |
| 2026-05-07 17:22 | 63.58563 | -22.02337 | 7779 ft | 255 kts | 322° |
| 2026-05-07 17:22 | 63.59906 | -22.04914 | 7456 ft | 253 kts | 321° |
| 2026-05-07 17:22 | 63.61217 | -22.07452 | 7139 ft | 252 kts | 321° |
| 2026-05-07 17:23 | 63.62535 | -22.10044 | 6830 ft | 252 kts | 321° |
| 2026-05-07 17:23 | 63.63861 | -22.12612 | 6487 ft | 251 kts | 322° |
| 2026-05-07 17:23 | 63.65172 | -22.15162 | 6163 ft | 249 kts | 321° |
| 2026-05-07 17:23 | 63.66466 | -22.17678 | 5846 ft | 248 kts | 322° |
| 2026-05-07 17:24 | 63.67754 | -22.20220 | 5546 ft | 247 kts | 321° |
| 2026-05-07 17:24 | 63.69045 | -22.22724 | 5236 ft | 246 kts | 322° |
| 2026-05-07 17:24 | 63.70338 | -22.25261 | 4964 ft | 244 kts | 322° |
| 2026-05-07 17:24 | 63.71618 | -22.27759 | 4711 ft | 243 kts | 322° |
| 2026-05-07 17:25 | 63.72893 | -22.30250 | 4457 ft | 243 kts | 322° |
| 2026-05-07 17:25 | 63.74160 | -22.32725 | 4193 ft | 243 kts | 322° |
| 2026-05-07 17:25 | 63.75423 | -22.35210 | 3943 ft | 240 kts | 322° |
| 2026-05-07 17:25 | 63.76547 | -22.37867 | 3820 ft | 233 kts | 303° |
| 2026-05-07 17:26 | 63.77198 | -22.41241 | 3646 ft | 240 kts | 294° |
| 2026-05-07 17:26 | 63.77809 | -22.44791 | 3293 ft | 242 kts | 295° |
| 2026-05-07 17:26 | 63.78405 | -22.48335 | 2917 ft | 242 kts | 294° |
| 2026-05-07 17:26 | 63.78987 | -22.51851 | 2736 ft | 235 kts | 294° |
| 2026-05-07 17:27 | 63.79535 | -22.55181 | 2740 ft | 222 kts | 294° |
| 2026-05-07 17:27 | 63.80264 | -22.58073 | 2749 ft | 200 kts | 323° |
| 2026-05-07 17:27 | 63.81406 | -22.59443 | 2767 ft | 182 kts | 343° |
| 2026-05-07 17:27 | 63.82563 | -22.60342 | 2727 ft | 169 kts | 353° |
| 2026-05-07 17:28 | 63.83673 | -22.60474 | 2748 ft | 151 kts | 4° |
| 2026-05-07 17:28 | 63.84707 | -22.60469 | 2611 ft | 149 kts | 2° |
| 2026-05-07 17:28 | 63.85733 | -22.60490 | 2395 ft | 147 kts | 2° |
| 2026-05-07 17:28 | 63.86762 | -22.60498 | 2188 ft | 148 kts | 3° |
| 2026-05-07 17:29 | 63.87763 | -22.60498 | 1963 ft | 141 kts | 2° |
| 2026-05-07 17:29 | 63.88701 | -22.60514 | 1791 ft | 129 kts | 2° |
| 2026-05-07 17:29 | 63.89566 | -22.60542 | 1573 ft | 119 kts | 1° |
| 2026-05-07 17:29 | 63.90373 | -22.60536 | 1436 ft | 116 kts | 4° |
| 2026-05-07 17:30 | 63.91193 | -22.60515 | 1273 ft | 119 kts | 2° |
| 2026-05-07 17:30 | 63.92016 | -22.60524 | 1094 ft | 116 kts | 1° |
| 2026-05-07 17:30 | 63.92811 | -22.60565 | 934 ft | 115 kts | 1° |
| 2026-05-07 17:30 | 63.93619 | -22.60562 | 768 ft | 115 kts | 2° |
| 2026-05-07 17:31 | 63.94414 | -22.60549 | 594 ft | 115 kts | 2° |
| 2026-05-07 17:31 | 63.95214 | -22.60552 | 426 ft | 114 kts | 2° |
| 2026-05-07 17:31 | 63.96001 | -22.60558 | 272 ft | 114 kts | 1° |
| 2026-05-07 17:31 | 63.96787 | -22.60561 | 147 ft | 110 kts | 1° |
| 2026-05-07 17:32 | 63.97441 | -22.60553 | 157 ft | 63 kts | 1° |
| 2026-05-07 17:32 | 63.97729 | -22.60551 | 164 ft | 34 kts | 1° |
| 2026-05-07 17:32 | 63.97947 | -22.60551 | 166 ft | 28 kts | 359° |
| 2026-05-07 17:32 | 63.98066 | -22.60595 | 166 ft | 23 kts | 346° |
| 2026-05-07 17:33 | 63.98231 | -22.60769 | 161 ft | 20 kts | 330° |
| 2026-05-07 17:33 | 63.98317 | -22.60883 | 158 ft | 0 kts | 331° |
| 2026-05-07 17:34 | 63.98363 | -22.60940 | 157 ft | 7 kts | 333° |
| 2026-05-07 17:34 | 63.98428 | -22.60945 | 156 ft | 15 kts | 2° |
| 2026-05-07 17:34 | 63.98561 | -22.60947 | 155 ft | 21 kts | 0° |
| 2026-05-07 17:35 | 63.98708 | -22.60946 | 156 ft | 20 kts | 360° |
| 2026-05-07 17:35 | 63.98853 | -22.60946 | 154 ft | 21 kts | 1° |